createdAt,value
2018-07-14T00:00:24.252Z,19.20
2018-07-14T00:02:53.262Z,19.20
2018-07-14T00:05:22.223Z,19.10
2018-07-14T00:07:51.670Z,19.10
2018-07-14T00:10:20.676Z,19.10
2018-07-14T00:12:49.673Z,19.10
2018-07-14T00:15:18.851Z,19.00
2018-07-14T00:17:47.849Z,19.00
2018-07-14T00:20:16.897Z,19.00
2018-07-14T00:22:45.887Z,19.00
2018-07-14T00:25:14.887Z,19.00
2018-07-14T00:27:43.897Z,18.90
2018-07-14T00:30:12.921Z,18.90
2018-07-14T00:32:41.885Z,18.90
2018-07-14T00:35:10.857Z,18.90
2018-07-14T00:37:39.877Z,18.80
2018-07-14T00:40:08.915Z,18.80
2018-07-14T00:42:37.923Z,18.70
2018-07-14T00:45:06.881Z,18.70
2018-07-14T00:47:35.915Z,18.70
2018-07-14T00:50:04.947Z,18.60
2018-07-14T00:52:33.957Z,18.60
2018-07-14T00:55:02.927Z,18.60
2018-07-14T00:57:31.905Z,18.60
2018-07-14T01:00:00.893Z,18.60
2018-07-14T01:02:29.897Z,18.60
2018-07-14T01:04:58.888Z,18.50
2018-07-14T01:07:27.895Z,18.50
2018-07-14T01:09:56.887Z,18.40
2018-07-14T01:12:25.917Z,18.40
2018-07-14T01:14:54.915Z,18.40
2018-07-14T01:17:23.885Z,18.40
2018-07-14T01:19:52.889Z,18.40
2018-07-14T01:22:22.137Z,18.30
2018-07-14T01:24:51.137Z,18.30
2018-07-14T01:32:17.425Z,18.20
2018-07-14T01:34:46.431Z,18.20
2018-07-14T01:37:15.385Z,18.20
2018-07-14T01:42:13.061Z,18.10
2018-07-14T01:44:42.057Z,18.10
2018-07-14T01:47:11.027Z,18.10
2018-07-14T01:49:40.025Z,18.10
2018-07-14T01:52:09.023Z,18.00
2018-07-14T01:54:38.013Z,18.00
2018-07-14T01:57:07.039Z,17.90
2018-07-14T01:59:36.073Z,17.90
2018-07-14T02:02:05.088Z,17.90
2018-07-14T02:04:34.135Z,17.90
2018-07-14T02:07:03.238Z,17.90
2018-07-14T02:09:32.264Z,17.80
2018-07-14T02:12:01.309Z,17.80
2018-07-14T02:14:30.320Z,17.70
2018-07-14T02:16:59.508Z,17.70
2018-07-14T02:19:28.504Z,17.70
2018-07-14T02:21:57.537Z,17.70
2018-07-14T02:24:26.494Z,17.70
2018-07-14T02:26:55.471Z,17.60
2018-07-14T02:29:24.462Z,17.60
2018-07-14T02:31:53.464Z,17.60
2018-07-14T02:34:22.456Z,17.50
2018-07-14T02:36:51.527Z,17.50
2018-07-14T02:39:20.508Z,17.50
2018-07-14T02:41:49.536Z,17.50
2018-07-14T02:44:18.516Z,17.40
2018-07-14T02:46:48.254Z,17.40
2018-07-14T02:49:17.302Z,17.30
2018-07-14T02:51:46.342Z,17.30
2018-07-14T02:54:15.321Z,17.30
2018-07-14T02:56:44.311Z,17.20
2018-07-14T02:59:13.281Z,17.20
2018-07-14T03:01:42.316Z,17.20
2018-07-14T03:04:11.341Z,17.10
2018-07-14T03:06:40.364Z,17.10
2018-07-14T03:09:09.348Z,17.10
2018-07-14T03:11:38.386Z,17.00
2018-07-14T03:14:07.425Z,17.10
2018-07-14T03:16:36.390Z,17.00
2018-07-14T03:19:06.245Z,17.00
2018-07-14T03:21:35.270Z,17.00
2018-07-14T03:26:32.915Z,17.00
2018-07-14T03:29:01.940Z,16.90
2018-07-14T03:31:30.985Z,16.90
2018-07-14T03:34:00.176Z,16.80
2018-07-14T03:36:29.168Z,16.80
2018-07-14T03:38:58.176Z,16.80
2018-07-14T03:41:27.224Z,16.70
2018-07-14T03:43:56.244Z,16.70
2018-07-14T03:46:25.308Z,16.60
2018-07-14T03:48:54.312Z,16.70
2018-07-14T03:51:23.284Z,16.60
2018-07-14T03:53:52.320Z,16.60
2018-07-14T03:56:21.294Z,16.60
2018-07-14T03:58:50.462Z,16.60
2018-07-14T04:01:19.568Z,16.60
2018-07-14T04:03:48.604Z,16.60
2018-07-14T04:06:17.619Z,16.60
2018-07-14T04:08:46.667Z,16.60
2018-07-14T04:11:15.705Z,16.70
2018-07-14T04:13:44.755Z,16.60
2018-07-14T04:16:13.766Z,16.70
2018-07-14T04:18:42.782Z,16.70
2018-07-14T04:21:11.819Z,16.70
2018-07-14T04:23:40.931Z,16.70
2018-07-14T04:26:09.882Z,16.70
2018-07-14T04:28:38.854Z,16.70
2018-07-14T04:31:07.996Z,16.80
2018-07-14T04:33:36.991Z,16.80
2018-07-14T04:36:06.243Z,16.80
2018-07-14T04:38:35.265Z,16.80
2018-07-14T04:41:04.297Z,16.90
2018-07-14T04:43:33.323Z,16.90
2018-07-14T04:46:02.349Z,17.00
2018-07-14T04:48:31.402Z,17.00
2018-07-14T04:51:00.431Z,17.10
2018-07-14T04:53:29.497Z,17.10
2018-07-14T04:55:58.557Z,17.20
2018-07-14T04:58:27.529Z,17.20
2018-07-14T05:00:56.835Z,17.20
2018-07-14T05:03:25.861Z,17.30
2018-07-14T05:05:54.911Z,17.30
2018-07-14T05:08:24.871Z,17.40
2018-07-14T05:10:53.877Z,17.40
2018-07-14T05:13:23.013Z,17.50
2018-07-14T05:18:21.108Z,17.60
2018-07-14T05:20:50.237Z,17.80
2018-07-14T05:23:19.966Z,18.00
2018-07-14T05:25:48.965Z,18.30
2018-07-14T05:28:18.065Z,18.60
2018-07-14T05:30:47.078Z,18.90
2018-07-14T05:33:16.177Z,19.10
2018-07-14T05:35:45.188Z,19.30
2018-07-14T05:38:14.191Z,19.40
2018-07-14T05:40:43.197Z,19.20
2018-07-14T05:43:12.170Z,19.10
2018-07-14T05:45:41.168Z,19.00
2018-07-14T05:48:10.262Z,18.90
2018-07-14T05:53:07.930Z,18.70
2018-07-14T05:55:36.920Z,18.70
2018-07-14T05:58:05.980Z,18.60
2018-07-14T06:00:35.110Z,18.70
2018-07-14T06:03:04.240Z,18.60
2018-07-14T06:05:33.237Z,18.60
2018-07-14T06:08:02.209Z,18.60
2018-07-14T06:10:31.204Z,18.60
2018-07-14T06:13:00.272Z,18.60
2018-07-14T06:15:29.294Z,18.60
2018-07-14T06:17:58.313Z,18.50
2018-07-14T06:20:27.293Z,18.50
2018-07-14T06:22:56.409Z,18.50
2018-07-14T06:25:25.433Z,18.50
2018-07-14T06:27:54.389Z,18.40
2018-07-14T06:30:23.408Z,18.40
2018-07-14T06:32:52.396Z,18.40
2018-07-14T06:35:21.450Z,18.40
2018-07-14T06:37:50.431Z,18.50
2018-07-14T06:40:19.496Z,18.50
2018-07-14T06:42:48.520Z,18.60
2018-07-14T06:45:17.545Z,18.60
2018-07-14T06:47:46.555Z,18.60
2018-07-14T06:50:15.706Z,18.60
2018-07-14T06:52:44.701Z,18.60
2018-07-14T06:55:13.809Z,18.70
2018-07-14T06:57:42.805Z,18.80
2018-07-14T07:00:11.853Z,18.80
2018-07-14T07:02:40.861Z,18.90
2018-07-14T07:07:38.539Z,18.80
2018-07-14T07:12:36.169Z,18.90
2018-07-14T07:15:05.174Z,19.00
2018-07-14T07:17:34.229Z,19.00
2018-07-14T07:20:03.535Z,19.10
2018-07-14T07:22:32.509Z,19.10
2018-07-14T07:25:02.547Z,19.10
2018-07-14T07:27:31.629Z,19.20
2018-07-14T07:30:00.629Z,19.30
2018-07-14T07:32:29.609Z,19.40
2018-07-14T07:34:58.629Z,19.40
2018-07-14T07:37:27.589Z,19.50
2018-07-14T07:39:56.617Z,19.50
2018-07-14T07:42:25.665Z,19.60
2018-07-14T07:44:54.619Z,19.70
2018-07-14T07:47:23.765Z,19.80
2018-07-14T07:49:52.757Z,19.80
2018-07-14T07:52:21.770Z,19.80
2018-07-14T07:54:50.857Z,19.80
2018-07-14T07:57:19.832Z,19.90
2018-07-14T08:02:17.490Z,20.00
2018-07-14T08:04:46.562Z,20.00
2018-07-14T08:07:15.696Z,20.00
2018-07-14T08:09:44.768Z,20.10
2018-07-14T08:12:13.758Z,20.10
2018-07-14T08:14:42.773Z,20.10
2018-07-14T08:17:11.914Z,20.20
2018-07-14T08:19:40.912Z,20.30
2018-07-14T08:22:09.967Z,20.20
2018-07-14T08:24:38.950Z,20.30
2018-07-14T08:27:07.984Z,20.40
2018-07-14T08:29:37.084Z,20.50
2018-07-14T08:32:06.182Z,20.50
2018-07-14T08:34:35.208Z,20.60
2018-07-14T08:37:04.358Z,20.70
2018-07-14T08:39:33.316Z,20.80
2018-07-14T08:42:02.294Z,20.80
2018-07-14T08:44:31.293Z,20.80
2018-07-14T08:47:00.386Z,20.90
2018-07-14T08:49:29.384Z,20.90
2018-07-14T08:51:58.400Z,21.00
2018-07-14T08:54:27.532Z,21.10
2018-07-14T08:56:56.624Z,21.10
2018-07-14T08:59:25.613Z,21.20
2018-07-14T09:01:54.644Z,21.30
2018-07-14T09:04:23.641Z,21.40
2018-07-14T09:06:52.684Z,21.40
2018-07-14T09:09:21.704Z,21.50
2018-07-14T09:11:50.698Z,21.50
2018-07-14T09:14:19.818Z,21.60
2018-07-14T09:16:48.851Z,21.60
2018-07-14T09:19:17.841Z,21.70
2018-07-14T09:21:46.834Z,21.80
2018-07-14T09:24:16.342Z,21.90
2018-07-14T09:26:46.451Z,21.90
2018-07-14T09:29:15.428Z,22.00
2018-07-14T09:31:44.379Z,22.10
2018-07-14T09:34:13.354Z,22.10
2018-07-14T09:36:42.652Z,22.10
2018-07-14T09:39:11.732Z,22.10
2018-07-14T09:41:40.860Z,22.10
2018-07-14T09:44:09.890Z,22.20
2018-07-14T09:46:39.055Z,22.20
2018-07-14T09:49:08.044Z,22.30
2018-07-14T09:51:37.022Z,22.30
2018-07-14T09:54:06.130Z,22.30
2018-07-14T09:56:35.199Z,22.30
2018-07-14T09:59:04.294Z,22.40
2018-07-14T10:01:33.378Z,22.40
2018-07-14T10:04:02.394Z,22.40
2018-07-14T10:06:31.608Z,22.50
2018-07-14T10:09:00.602Z,22.60
2018-07-14T10:11:29.579Z,22.60
2018-07-14T10:13:58.570Z,22.60
2018-07-14T10:16:27.649Z,22.60
2018-07-14T10:21:25.269Z,22.70
2018-07-14T10:23:54.311Z,22.70
2018-07-14T10:26:24.032Z,22.80
2018-07-14T10:28:53.080Z,22.80
2018-07-14T10:31:22.053Z,22.90
2018-07-14T10:33:51.111Z,23.00
2018-07-14T10:36:20.121Z,23.10
2018-07-14T10:38:49.158Z,23.10
2018-07-14T10:41:18.433Z,23.10
2018-07-14T10:43:47.433Z,23.10
2018-07-14T10:46:16.374Z,23.10
2018-07-14T10:48:45.413Z,23.20
2018-07-14T10:51:14.438Z,23.30
2018-07-14T10:53:43.506Z,23.30
2018-07-14T10:56:12.521Z,23.30
2018-07-14T10:58:42.215Z,23.40
2018-07-14T11:01:11.241Z,23.40
2018-07-14T11:03:40.212Z,23.40
2018-07-14T11:06:09.189Z,23.40
2018-07-14T11:08:38.239Z,23.50
2018-07-14T11:11:07.260Z,23.60
2018-07-14T11:13:36.254Z,23.50
2018-07-14T11:16:05.317Z,23.60
2018-07-14T11:18:34.335Z,23.60
2018-07-14T11:21:03.563Z,23.70
2018-07-14T11:23:32.673Z,23.70
2018-07-14T11:26:01.643Z,23.80
2018-07-14T11:28:30.702Z,23.80
2018-07-14T11:30:59.931Z,23.80
2018-07-14T11:33:29.655Z,23.90
2018-07-14T11:36:01.108Z,24.00
2018-07-14T11:38:30.158Z,24.10
2018-07-14T11:40:59.124Z,24.20
2018-07-14T11:43:28.077Z,24.30
2018-07-14T11:45:57.084Z,24.40
2018-07-14T11:48:26.125Z,24.60
2018-07-14T11:50:55.249Z,24.70
2018-07-14T11:53:24.208Z,24.90
2018-07-14T11:55:53.189Z,25.00
2018-07-14T11:58:22.174Z,25.10
2018-07-14T12:00:51.172Z,25.00
2018-07-14T12:03:20.192Z,25.00
2018-07-14T12:05:49.150Z,25.10
2018-07-14T12:08:18.170Z,25.10
2018-07-14T12:10:47.142Z,25.20
2018-07-14T12:13:16.199Z,25.20
2018-07-14T12:15:45.220Z,25.30
2018-07-14T12:18:14.221Z,25.50
2018-07-14T12:20:43.286Z,25.60
2018-07-14T12:23:12.293Z,25.60
2018-07-14T12:25:41.311Z,25.60
2018-07-14T12:28:14.304Z,25.60
2018-07-14T12:30:43.367Z,25.60
2018-07-14T12:33:12.327Z,25.70
2018-07-14T12:38:09.903Z,26.00
2018-07-14T12:40:39.020Z,26.00
2018-07-14T12:43:08.020Z,26.10
2018-07-14T12:45:37.110Z,26.20
2018-07-14T12:48:06.244Z,26.30
2018-07-14T12:50:35.260Z,26.40
2018-07-14T12:53:04.268Z,26.30
2018-07-14T12:55:33.255Z,26.40
2018-07-14T13:00:30.965Z,26.50
2018-07-14T13:03:00.063Z,26.50
2018-07-14T13:05:29.100Z,26.40
2018-07-14T13:07:58.171Z,26.40
2018-07-14T13:10:27.242Z,26.40
2018-07-14T13:12:56.402Z,26.50
2018-07-14T13:15:25.534Z,26.60
2018-07-14T13:17:54.546Z,26.60
2018-07-14T13:20:23.633Z,26.60
2018-07-14T13:22:52.644Z,26.60
2018-07-14T13:25:21.718Z,26.70
2018-07-14T13:27:50.919Z,26.80
2018-07-14T13:30:19.916Z,27.00
2018-07-14T13:32:49.268Z,27.10
2018-07-14T13:35:18.304Z,27.20
2018-07-14T13:37:47.852Z,27.30
2018-07-14T13:40:16.890Z,27.40
2018-07-14T13:42:45.920Z,27.40
2018-07-14T13:45:15.918Z,27.50
2018-07-14T13:47:45.332Z,27.50
2018-07-14T13:50:14.309Z,27.50
2018-07-14T13:52:43.306Z,27.50
2018-07-14T13:55:12.348Z,27.50
2018-07-14T13:57:41.358Z,27.60
2018-07-14T14:00:10.397Z,27.60
2018-07-14T14:02:39.444Z,27.70
2018-07-14T14:05:08.889Z,27.70
2018-07-14T14:07:37.965Z,27.80
2018-07-14T14:12:35.595Z,28.10
2018-07-14T14:15:04.761Z,28.10
2018-07-14T14:17:33.855Z,28.20
2018-07-14T14:20:03.078Z,28.30
2018-07-14T14:22:32.109Z,28.40
2018-07-14T14:25:01.094Z,28.50
2018-07-14T14:27:30.095Z,28.60
2018-07-14T14:29:59.225Z,28.70
2018-07-14T14:32:28.269Z,28.40
2018-07-14T14:34:57.305Z,28.40
2018-07-14T14:37:26.273Z,28.40
2018-07-14T14:39:55.261Z,28.30
2018-07-14T14:42:25.061Z,28.30
2018-07-14T14:44:54.077Z,28.30
2018-07-14T14:47:23.043Z,28.30
2018-07-14T14:49:52.080Z,28.30
2018-07-14T14:52:21.130Z,28.10
2018-07-14T14:54:50.149Z,28.10
2018-07-14T14:57:19.147Z,28.20
2018-07-14T14:59:48.277Z,28.30
2018-07-14T15:02:17.291Z,28.40
2018-07-14T15:04:46.324Z,28.60
2018-07-14T15:07:15.359Z,28.60
2018-07-14T15:09:44.403Z,28.70
2018-07-14T15:12:13.364Z,28.70
2018-07-14T15:14:42.392Z,28.80
2018-07-14T15:17:11.404Z,28.80
2018-07-14T15:19:40.476Z,28.90
2018-07-14T15:22:09.444Z,28.90
2018-07-14T15:24:38.440Z,28.90
2018-07-14T15:27:08.154Z,29.00
2018-07-14T15:29:37.176Z,29.00
2018-07-14T15:32:06.242Z,29.00
2018-07-14T15:34:35.308Z,29.10
2018-07-14T15:37:04.394Z,29.00
2018-07-14T15:39:33.397Z,28.80
2018-07-14T15:42:02.390Z,28.80
2018-07-14T15:44:31.450Z,28.80
2018-07-14T15:47:00.480Z,29.00
2018-07-14T15:49:29.562Z,29.10
2018-07-14T15:51:58.510Z,29.10
2018-07-14T15:54:27.510Z,29.20
2018-07-14T15:56:56.553Z,29.20
2018-07-14T15:59:25.586Z,29.30
2018-07-14T16:01:54.579Z,29.40
2018-07-14T16:04:23.541Z,29.50
2018-07-14T16:06:52.558Z,29.50
2018-07-14T16:09:21.624Z,29.50
2018-07-14T16:11:50.722Z,29.60
2018-07-14T16:14:19.776Z,29.70
2018-07-14T16:16:48.745Z,29.80
2018-07-14T16:19:17.777Z,29.80
2018-07-14T16:24:15.444Z,29.60
2018-07-14T16:26:44.454Z,29.60
2018-07-14T16:29:13.447Z,29.70
2018-07-14T16:31:42.396Z,29.70
2018-07-14T16:34:11.428Z,29.70
2018-07-14T16:36:40.454Z,29.70
2018-07-14T16:39:10.998Z,29.80
2018-07-14T16:41:40.322Z,29.60
2018-07-14T16:44:09.330Z,29.60
2018-07-14T16:46:38.337Z,29.70
2018-07-14T16:49:07.364Z,29.80
2018-07-14T16:51:36.348Z,29.70
2018-07-14T16:54:05.436Z,29.60
2018-07-14T16:59:03.067Z,29.60
2018-07-14T17:01:32.076Z,29.70
2018-07-14T17:04:01.036Z,29.80
2018-07-14T17:06:29.984Z,29.70
2018-07-14T17:08:59.000Z,29.80
2018-07-14T17:11:28.030Z,29.80
2018-07-14T17:13:57.057Z,29.60
2018-07-14T17:16:26.030Z,29.50
2018-07-14T17:18:54.984Z,29.50
2018-07-14T17:21:24.056Z,29.50
2018-07-14T17:23:53.129Z,29.60
2018-07-14T17:26:22.107Z,29.60
2018-07-14T17:28:51.152Z,29.50
2018-07-14T17:31:20.172Z,29.50
2018-07-14T17:33:49.158Z,29.50
2018-07-14T17:36:18.158Z,29.50
2018-07-14T17:38:47.538Z,29.40
2018-07-14T17:41:16.565Z,29.40
2018-07-14T17:43:45.720Z,29.40
2018-07-14T17:46:14.741Z,29.40
2018-07-14T17:48:43.762Z,29.40
2018-07-14T17:51:12.760Z,29.50
2018-07-14T17:53:41.729Z,29.60
2018-07-14T17:56:10.697Z,29.50
2018-07-14T17:58:39.703Z,29.40
2018-07-14T18:01:08.717Z,29.30
2018-07-14T18:03:37.709Z,29.20
2018-07-14T18:06:06.685Z,29.20
2018-07-14T18:08:35.763Z,29.30
2018-07-14T18:11:04.813Z,29.30
2018-07-14T18:13:33.781Z,29.20
2018-07-14T18:16:02.761Z,29.10
2018-07-14T18:18:31.767Z,29.10
2018-07-14T18:21:00.765Z,29.00
2018-07-14T18:23:29.737Z,28.90
2018-07-14T18:25:58.747Z,28.70
2018-07-14T18:28:27.945Z,28.70
2018-07-14T18:30:57.008Z,28.60
2018-07-14T18:33:26.005Z,28.50
2018-07-14T18:35:54.958Z,28.40
2018-07-14T18:38:23.947Z,28.40
2018-07-14T18:40:53.027Z,28.20
2018-07-14T18:43:22.013Z,28.10
2018-07-14T18:45:51.341Z,28.20
2018-07-14T18:48:20.371Z,28.10
2018-07-14T18:50:49.385Z,28.10
2018-07-14T18:53:18.382Z,28.10
2018-07-14T18:58:27.098Z,28.00
2018-07-14T19:00:56.167Z,27.90
2018-07-14T19:03:25.159Z,27.90
2018-07-14T19:05:54.137Z,27.80
2018-07-14T19:08:23.205Z,27.80
2018-07-14T19:10:52.218Z,27.70
2018-07-14T19:13:21.181Z,27.60
2018-07-14T19:15:50.137Z,27.40
2018-07-14T19:18:19.181Z,27.20
2018-07-14T19:20:48.245Z,27.10
2018-07-14T19:23:17.220Z,27.00
2018-07-14T19:25:46.200Z,27.00
2018-07-14T19:30:43.833Z,26.90
2018-07-14T19:33:12.832Z,26.70
2018-07-14T19:35:42.169Z,26.60
2018-07-14T19:40:39.780Z,26.40
2018-07-14T19:43:08.831Z,26.30
2018-07-14T19:45:37.836Z,26.10
2018-07-14T19:48:07.065Z,26.00
2018-07-14T19:50:36.030Z,25.90
2018-07-14T19:53:05.012Z,25.90
2018-07-14T19:55:35.667Z,25.80
2018-07-14T19:58:02.958Z,25.70
2018-07-14T20:00:32.032Z,25.70
2018-07-14T20:03:01.062Z,25.60
2018-07-14T20:05:30.042Z,25.50
2018-07-14T20:07:58.999Z,25.50
2018-07-14T20:10:27.985Z,25.40
2018-07-14T20:12:56.974Z,25.30
2018-07-14T20:20:23.356Z,25.00
2018-07-14T20:22:52.410Z,24.90
2018-07-14T20:25:21.402Z,24.80
2018-07-14T20:27:50.354Z,24.70
2018-07-14T20:30:19.415Z,24.60
2018-07-14T20:32:48.427Z,24.60
2018-07-14T20:35:17.409Z,24.50
2018-07-14T20:37:46.377Z,24.40
2018-07-14T20:40:15.357Z,24.30
2018-07-14T20:42:44.355Z,24.30
2018-07-14T20:45:13.370Z,24.20
2018-07-14T20:47:42.401Z,24.10
2018-07-14T20:50:11.365Z,24.00
2018-07-14T20:52:40.388Z,23.90
2018-07-14T20:55:09.417Z,23.90
2018-07-14T20:57:38.409Z,23.80
2018-07-14T21:00:07.433Z,23.80
2018-07-14T21:02:36.473Z,23.70
2018-07-14T21:05:05.521Z,23.60
2018-07-14T21:07:34.477Z,23.50
2018-07-14T21:10:03.475Z,23.50
2018-07-14T21:12:32.652Z,23.30
2018-07-14T21:15:01.729Z,23.20
2018-07-14T21:17:30.677Z,23.20
2018-07-14T21:19:59.677Z,23.20
2018-07-14T21:22:28.675Z,23.20
2018-07-14T21:24:57.665Z,23.20
2018-07-14T21:27:26.657Z,23.10
2018-07-14T21:29:55.677Z,23.00
2018-07-14T21:32:24.676Z,23.00
2018-07-14T21:34:53.703Z,22.90
2018-07-14T21:37:22.653Z,22.90
2018-07-14T21:39:51.608Z,22.80
2018-07-14T21:42:20.628Z,22.80
2018-07-14T21:44:49.654Z,22.80
2018-07-14T21:47:18.667Z,22.70
2018-07-14T21:49:47.624Z,22.70
2018-07-14T21:52:16.596Z,22.60
2018-07-14T21:54:45.585Z,22.60
2018-07-14T21:57:14.524Z,22.50
2018-07-14T21:59:43.484Z,22.50
2018-07-14T22:02:12.477Z,22.40
2018-07-14T22:04:41.492Z,22.40
2018-07-14T22:07:10.461Z,22.30
2018-07-14T22:09:39.417Z,22.30
2018-07-14T22:12:08.456Z,22.20
2018-07-14T22:14:37.466Z,22.20
2018-07-14T22:17:06.513Z,22.20
2018-07-14T22:19:35.505Z,22.10
2018-07-14T22:22:04.556Z,22.10
2018-07-14T22:24:33.644Z,22.00
2018-07-14T22:27:02.639Z,21.90
2018-07-14T22:29:31.670Z,21.90
2018-07-14T22:32:00.655Z,21.80
2018-07-14T22:34:29.662Z,21.80
2018-07-14T22:36:58.636Z,21.80
2018-07-14T22:39:27.604Z,21.70
2018-07-14T22:41:56.619Z,21.70
2018-07-14T22:44:25.604Z,21.60
2018-07-14T22:46:54.666Z,21.50
2018-07-14T22:49:23.682Z,21.50
2018-07-14T22:51:52.660Z,21.50
2018-07-14T22:54:21.789Z,21.40
2018-07-14T22:56:50.805Z,21.40
2018-07-14T22:59:19.768Z,21.30
2018-07-14T23:01:48.770Z,21.30
2018-07-14T23:04:17.752Z,21.30
2018-07-14T23:06:46.742Z,21.20
2018-07-14T23:09:15.734Z,21.20
2018-07-14T23:11:44.726Z,21.10
2018-07-14T23:14:13.734Z,21.10
2018-07-14T23:16:42.714Z,21.00
2018-07-14T23:19:11.699Z,21.00
2018-07-14T23:21:40.708Z,20.90
2018-07-14T23:24:09.872Z,20.90
2018-07-14T23:26:39.216Z,20.90
2018-07-14T23:29:08.222Z,20.80
2018-07-14T23:31:37.226Z,20.80
2018-07-14T23:34:06.357Z,20.80
2018-07-14T23:36:35.362Z,20.80
2018-07-14T23:39:06.490Z,20.70
2018-07-14T23:41:36.100Z,20.70
2018-07-14T23:46:33.800Z,20.70
2018-07-14T23:49:02.850Z,20.70
2018-07-14T23:51:31.825Z,20.60
2018-07-14T23:54:00.813Z,20.50
2018-07-14T23:56:29.951Z,20.50
2018-07-14T23:58:58.913Z,20.50
